createdAt,value
2022-09-22T00:02:29.360Z,4
2022-09-22T00:04:27.130Z,3.6
2022-09-22T00:08:28.061Z,3.9
2022-09-22T00:10:28.096Z,3.8
2022-09-22T00:12:22.502Z,3.7
2022-09-22T00:16:24.333Z,4.3
2022-09-22T00:18:24.025Z,3.7
2022-09-22T00:20:28.441Z,3.9
2022-09-22T00:22:24.980Z,3.4
2022-09-22T00:24:25.888Z,3.7
2022-09-22T00:28:25.685Z,3.2
2022-09-22T00:30:25.798Z,3.8
2022-09-22T00:32:26.596Z,3.7
2022-09-22T00:34:22.733Z,3.8
2022-09-22T00:36:27.884Z,4.2
2022-09-22T00:40:25.531Z,3.8
2022-09-22T00:42:28.137Z,3.2
2022-09-22T00:44:27.024Z,3.9
2022-09-22T00:46:26.855Z,3.8
2022-09-22T00:48:23.961Z,3.4
2022-09-22T00:50:26.857Z,3.7
2022-09-22T00:54:25.906Z,4.3
2022-09-22T00:56:24.883Z,3.8
2022-09-22T01:02:26.755Z,3.5
2022-09-22T01:04:21.468Z,3.9
2022-09-22T01:08:26.454Z,3.7
2022-09-22T01:10:25.475Z,3.8
2022-09-22T01:12:28.632Z,3.4
2022-09-22T01:14:23.150Z,3.3
2022-09-22T01:16:28.808Z,3.6
2022-09-22T01:18:25.568Z,3.9
2022-09-22T01:20:26.841Z,4
2022-09-22T01:22:25.849Z,3.2
2022-09-22T01:24:22.257Z,3.1
2022-09-22T01:26:25.267Z,3.7
2022-09-22T01:30:24.189Z,4
2022-09-22T01:32:26.646Z,3.8
2022-09-22T01:34:30.356Z,3.4
2022-09-22T01:36:24.987Z,3
2022-09-22T01:38:25.201Z,3.6
2022-09-22T01:40:27.882Z,3.5
2022-09-22T01:42:22.785Z,3.9
2022-09-22T01:44:24.811Z,4.4
2022-09-22T01:46:27.648Z,3.6
2022-09-22T01:48:26.703Z,3.7
2022-09-22T01:50:26.122Z,3.4
2022-09-22T01:58:28.912Z,3.9
2022-09-22T02:00:26.707Z,3.3
2022-09-22T02:02:30.637Z,3.5
2022-09-22T02:04:24.467Z,3.7
2022-09-22T02:10:27.447Z,4.2
2022-09-22T02:12:29.135Z,3.5
2022-09-22T02:14:25.189Z,4.1
2022-09-22T02:16:28.202Z,3.3
2022-09-22T02:18:24.573Z,3.1
2022-09-22T02:20:23.770Z,3.5
2022-09-22T02:22:26.432Z,3.7
2022-09-22T02:24:21.884Z,3.3
2022-09-22T02:26:25.435Z,3.6
2022-09-22T02:28:26.160Z,2.9
2022-09-22T02:30:24.867Z,4.4
2022-09-22T02:32:26.871Z,3.3
2022-09-22T02:38:25.337Z,3.4
2022-09-22T02:40:26.034Z,3.6
2022-09-22T02:42:28.490Z,3.5
2022-09-22T02:44:23.652Z,3.3
2022-09-22T02:46:30.139Z,3.2
2022-09-22T02:48:24.180Z,3.3
2022-09-22T02:50:27.524Z,3.8
2022-09-22T02:52:24.679Z,3.5
2022-09-22T02:56:21.990Z,2.8
2022-09-22T02:58:23.928Z,3.2
2022-09-22T03:00:26.092Z,3.6
2022-09-22T03:02:28.232Z,3.7
2022-09-22T03:04:24.467Z,3.9
2022-09-22T03:06:26.965Z,3.7
2022-09-22T03:08:24.839Z,3.3
2022-09-22T03:10:28.420Z,3.5
2022-09-22T03:12:24.910Z,3.1
2022-09-22T03:16:28.133Z,4.2
2022-09-22T03:18:29.228Z,3.6
2022-09-22T03:20:26.835Z,3.5
2022-09-22T03:22:26.595Z,3.4
2022-09-22T03:24:22.587Z,3
2022-09-22T03:26:32.663Z,3.3
2022-09-22T03:28:29.000Z,3.5
2022-09-22T03:32:26.912Z,3.2
2022-09-22T03:34:23.035Z,3.3
2022-09-22T03:36:25.691Z,3.1
2022-09-22T03:38:24.350Z,3.6
2022-09-22T03:40:28.154Z,3.4
2022-09-22T03:42:24.012Z,3
2022-09-22T03:46:22.164Z,3.2
2022-09-22T03:48:28.959Z,3.6
2022-09-22T03:50:28.853Z,3.5
2022-09-22T03:52:27.575Z,3.7
2022-09-22T03:54:27.449Z,3
2022-09-22T03:56:22.502Z,3.3
2022-09-22T03:58:26.336Z,3.5
2022-09-22T04:00:27.250Z,3.4
2022-09-22T04:02:28.589Z,3.1
2022-09-22T04:04:26.461Z,3.8
2022-09-22T04:06:26.883Z,3.4
2022-09-22T04:08:22.269Z,3.2
2022-09-22T04:10:24.909Z,3.4
2022-09-22T04:12:24.613Z,3.7
2022-09-22T04:14:23.331Z,3.6
2022-09-22T04:16:22.945Z,3.5
2022-09-22T04:20:25.310Z,2.8
2022-09-22T04:22:26.873Z,3.4
2022-09-22T04:24:22.721Z,3.7
2022-09-22T04:26:24.995Z,3.4
2022-09-22T04:30:29.060Z,3.8
2022-09-22T04:32:23.581Z,3.4
2022-09-22T04:34:21.001Z,3.5
2022-09-22T04:36:25.184Z,3
2022-09-22T04:38:28.233Z,3.3
2022-09-22T04:40:21.951Z,3.1
2022-09-22T04:44:22.365Z,3.7
2022-09-22T04:46:22.772Z,3.2
2022-09-22T04:48:21.923Z,4.6
2022-09-22T04:50:27.093Z,3.3
2022-09-22T04:52:27.620Z,3.6
2022-09-22T04:54:23.194Z,3.5
2022-09-22T04:56:27.668Z,3.8
2022-09-22T04:58:25.658Z,3.4
2022-09-22T05:00:22.847Z,3.6
2022-09-22T05:04:24.414Z,3.4
2022-09-22T05:10:24.804Z,3.5
2022-09-22T05:12:29.267Z,3.6
2022-09-22T05:14:26.271Z,3.9
2022-09-22T05:16:25.180Z,3.7
2022-09-22T05:18:26.132Z,3.2
2022-09-22T05:22:23.039Z,3.5
2022-09-22T05:24:26.224Z,3.6
2022-09-22T05:26:25.113Z,3.9
2022-09-22T05:28:29.970Z,4
2022-09-22T05:30:22.379Z,3.3
2022-09-22T05:32:29.073Z,3.5
2022-09-22T05:34:26.375Z,4.1
2022-09-22T05:36:29.984Z,3.3
2022-09-22T05:38:25.645Z,3.6
2022-09-22T05:40:27.432Z,3.5
2022-09-22T05:44:24.467Z,3.8
2022-09-22T05:46:27.355Z,3.4
2022-09-22T05:48:33.349Z,3.7
2022-09-22T05:50:26.146Z,3.6
2022-09-22T05:52:29.457Z,4.3
2022-09-22T05:54:23.828Z,3.8
2022-09-22T05:56:25.126Z,3.4
2022-09-22T05:58:28.006Z,3.7
2022-09-22T06:00:27.641Z,3.8
2022-09-22T06:02:30.184Z,4.1
2022-09-22T06:04:25.298Z,4.5
2022-09-22T06:06:28.558Z,4.1
2022-09-22T06:08:27.460Z,4.7
2022-09-22T06:10:23.886Z,4.8
2022-09-22T06:12:28.464Z,5
2022-09-22T06:14:27.456Z,5.3
2022-09-22T06:16:23.881Z,4.3
2022-09-22T06:20:25.850Z,3.9
2022-09-22T06:22:27.464Z,4.8
2022-09-22T06:24:24.117Z,4.6
2022-09-22T06:26:26.009Z,4.2
2022-09-22T06:28:27.638Z,4.9
2022-09-22T06:30:24.263Z,4.7
2022-09-22T06:32:28.788Z,4.5
2022-09-22T06:34:23.173Z,3.5
2022-09-22T06:36:37.211Z,4.8
2022-09-22T06:38:29.367Z,5.7
2022-09-22T06:40:22.974Z,4.8
2022-09-22T06:42:26.336Z,4.7
2022-09-22T06:44:24.131Z,5.8
2022-09-22T06:46:27.998Z,4.4
2022-09-22T06:48:25.069Z,6
2022-09-22T06:50:30.601Z,5.3
2022-09-22T06:52:31.171Z,4.5
2022-09-22T06:54:29.780Z,5.7
2022-09-22T06:56:25.817Z,6
2022-09-22T06:58:22.655Z,5.7
2022-09-22T07:00:27.248Z,5.6
2022-09-22T07:02:27.304Z,5.8
2022-09-22T07:04:24.602Z,5
2022-09-22T07:08:27.110Z,5.1
2022-09-22T07:10:24.615Z,4.8
2022-09-22T07:14:21.587Z,4.9
2022-09-22T07:16:25.191Z,4.6
2022-09-22T07:18:28.040Z,4
2022-09-22T07:20:26.006Z,4.1
2022-09-22T07:24:27.614Z,4.5
2022-09-22T07:26:26.169Z,4
2022-09-22T07:28:24.403Z,4.6
2022-09-22T07:30:27.727Z,4
2022-09-22T07:34:26.511Z,4.1
2022-09-22T07:36:27.254Z,4
2022-09-22T07:38:25.021Z,4.5
2022-09-22T07:40:24.074Z,5.6
2022-09-22T07:42:24.828Z,4.8
2022-09-22T07:44:21.785Z,4.3
2022-09-22T07:46:26.043Z,4
2022-09-22T07:48:23.077Z,3.5
2022-09-22T07:50:27.625Z,3.9
2022-09-22T07:52:23.957Z,3.6
2022-09-22T07:54:26.403Z,3.3
2022-09-22T07:56:22.869Z,3.1
2022-09-22T07:58:27.980Z,3.7
2022-09-22T08:00:24.683Z,3.3
2022-09-22T08:02:27.274Z,3.4
2022-09-22T08:04:26.886Z,3.1
2022-09-22T08:06:23.931Z,3.5
2022-09-22T08:10:22.491Z,4.1
2022-09-22T08:12:25.346Z,3.3
2022-09-22T08:14:25.082Z,3.1
2022-09-22T08:16:27.662Z,4.2
2022-09-22T08:18:26.467Z,4.4
2022-09-22T08:20:26.258Z,3.6
2022-09-22T08:22:27.385Z,3.4
2022-09-22T08:24:24.316Z,3.9
2022-09-22T08:26:24.855Z,4.4
2022-09-22T08:28:25.595Z,4.1
2022-09-22T08:30:26.302Z,4.2
2022-09-22T08:32:27.228Z,3.8
2022-09-22T08:34:25.440Z,3.9
2022-09-22T08:36:25.696Z,4
2022-09-22T08:38:27.384Z,4.4
2022-09-22T08:40:29.874Z,3.7
2022-09-22T08:42:26.556Z,4.3
2022-09-22T08:44:24.373Z,4.5
2022-09-22T08:46:26.002Z,4.7
2022-09-22T08:48:27.621Z,4.9
2022-09-22T08:50:28.177Z,4.4
2022-09-22T08:52:27.887Z,4.8
2022-09-22T08:54:25.866Z,4.6
2022-09-22T08:56:23.753Z,5.3
2022-09-22T08:58:23.990Z,4.7
2022-09-22T09:00:23.886Z,4.9
2022-09-22T09:02:29.206Z,5.1
2022-09-22T09:04:23.672Z,4.8
2022-09-22T09:06:27.896Z,5.4
2022-09-22T09:08:28.774Z,5.1
2022-09-22T09:10:26.208Z,5.2
2022-09-22T09:14:27.421Z,5.1
2022-09-22T09:16:26.798Z,5.4
2022-09-22T09:18:25.910Z,4.9
2022-09-22T09:20:24.671Z,4.4
2022-09-22T09:22:29.963Z,4.6
2022-09-22T09:28:37.355Z,4.5
2022-09-22T09:30:28.037Z,4.9
2022-09-22T09:32:29.184Z,4.6
2022-09-22T09:34:21.660Z,4.9
2022-09-22T09:36:28.486Z,4.5
2022-09-22T09:38:27.003Z,4.3
2022-09-22T09:40:28.469Z,3.6
2022-09-22T09:44:26.218Z,3.8
2022-09-22T09:46:25.408Z,3.4
2022-09-22T09:48:25.926Z,3.2
2022-09-22T09:50:25.894Z,3
2022-09-22T09:52:27.562Z,4
2022-09-22T09:54:25.599Z,3.3
2022-09-22T09:56:25.626Z,3.5
2022-09-22T09:58:24.452Z,3.1
2022-09-22T10:02:24.919Z,3.2
2022-09-22T10:04:26.586Z,2.8
2022-09-22T10:06:27.686Z,3.1
2022-09-22T10:08:26.375Z,3.9
2022-09-22T10:10:26.510Z,2.7
2022-09-22T10:12:25.496Z,2.9
2022-09-22T10:14:24.100Z,3.2
2022-09-22T10:16:30.270Z,2.7
2022-09-22T10:18:26.288Z,3.1
2022-09-22T10:20:25.560Z,3.2
2022-09-22T10:22:24.604Z,3.1
2022-09-22T10:24:28.210Z,2.8
2022-09-22T10:26:29.190Z,3
2022-09-22T10:28:23.781Z,3.4
2022-09-22T10:30:28.309Z,2.9
2022-09-22T10:32:29.388Z,3.1
2022-09-22T10:34:26.505Z,3.2
2022-09-22T10:36:27.685Z,3.1
2022-09-22T10:38:27.102Z,3.4
2022-09-22T10:40:26.418Z,2.9
2022-09-22T10:46:34.198Z,2.7
2022-09-22T10:48:28.342Z,2.8
2022-09-22T10:50:25.945Z,3.1
2022-09-22T10:52:26.451Z,3.2
2022-09-22T10:54:24.098Z,2.8
2022-09-22T10:56:26.994Z,2.7
2022-09-22T10:58:25.311Z,2.4
2022-09-22T11:00:27.839Z,2.9
2022-09-22T11:02:26.394Z,3.6
2022-09-22T11:04:22.832Z,2.7
2022-09-22T11:08:24.011Z,2.9
2022-09-22T11:10:25.520Z,2.8
2022-09-22T11:12:28.074Z,2.7
2022-09-22T11:16:23.385Z,2.5
2022-09-22T11:18:25.323Z,2.7
2022-09-22T11:20:23.763Z,2.5
2022-09-22T11:22:26.037Z,2.8
2022-09-22T11:24:27.242Z,3.7
2022-09-22T11:26:26.466Z,3.1
2022-09-22T11:28:27.793Z,2.8
2022-09-22T11:30:25.228Z,3
2022-09-22T11:32:29.661Z,2.7
2022-09-22T11:34:25.315Z,2.9
2022-09-22T11:36:27.973Z,3.2
2022-09-22T11:38:25.965Z,3.1
2022-09-22T11:40:25.756Z,3.5
2022-09-22T11:42:26.878Z,2.8
2022-09-22T11:44:26.070Z,2.6
2022-09-22T11:46:28.117Z,3.3
2022-09-22T11:48:27.278Z,2.8
2022-09-22T11:50:26.537Z,3
2022-09-22T11:52:27.122Z,2.9
2022-09-22T11:54:24.607Z,3
2022-09-22T11:56:28.339Z,3.1
2022-09-22T11:58:25.364Z,3.5
2022-09-22T12:00:25.384Z,3
2022-09-22T12:02:26.404Z,2.9
2022-09-22T12:04:23.345Z,3.1
2022-09-22T12:06:27.733Z,3.3
2022-09-22T12:08:26.609Z,2.9
2022-09-22T12:10:28.250Z,2.8
2022-09-22T12:12:27.904Z,3.2
2022-09-22T12:14:26.438Z,3.4
2022-09-22T12:16:29.601Z,3.2
2022-09-22T12:18:28.120Z,3.5
2022-09-22T12:20:23.804Z,3.8
2022-09-22T12:22:25.050Z,3.1
2022-09-22T12:24:26.806Z,2.8
2022-09-22T12:26:24.105Z,3.3
2022-09-22T12:28:29.017Z,3.1
2022-09-22T12:30:23.993Z,3.2
2022-09-22T12:32:25.740Z,2.9
2022-09-22T12:36:26.093Z,3
2022-09-22T12:38:25.383Z,2.7
2022-09-22T12:40:26.188Z,2.9
2022-09-22T12:42:24.461Z,3
2022-09-22T12:44:26.769Z,3.1
2022-09-22T12:46:23.091Z,2.7
2022-09-22T12:50:25.730Z,2.8
2022-09-22T12:54:23.948Z,2.7
2022-09-22T12:56:24.554Z,2.5
2022-09-22T12:58:28.309Z,2.7
2022-09-22T13:00:23.027Z,2.9
2022-09-22T13:02:25.067Z,2.7
2022-09-22T13:06:29.891Z,3.3
2022-09-22T13:08:25.760Z,2.5
2022-09-22T13:10:28.773Z,3
2022-09-22T13:12:29.791Z,2.4
2022-09-22T13:14:27.095Z,2.8
2022-09-22T13:16:28.038Z,2.6
2022-09-22T13:18:30.105Z,2.8
2022-09-22T13:20:23.702Z,3.4
2022-09-22T13:24:27.565Z,2.7
2022-09-22T13:26:28.303Z,2.8
2022-09-22T13:28:26.487Z,2.7
2022-09-22T13:30:26.833Z,3
2022-09-22T13:32:27.580Z,2.5
2022-09-22T13:34:27.404Z,2.3
2022-09-22T13:36:24.943Z,2.5
2022-09-22T13:40:24.290Z,2.9
2022-09-22T13:42:23.617Z,2.7
2022-09-22T13:44:24.577Z,2.2
2022-09-22T13:46:26.213Z,2.5
2022-09-22T13:48:29.057Z,2.7
2022-09-22T13:50:24.871Z,2.3
2022-09-22T13:52:28.105Z,2.6
2022-09-22T13:54:23.898Z,2
2022-09-22T13:56:27.594Z,2.9
2022-09-22T13:58:26.344Z,2.5
2022-09-22T14:00:25.372Z,2.9
2022-09-22T14:02:31.243Z,2.6
2022-09-22T14:04:29.638Z,2.8
2022-09-22T14:06:29.075Z,2.4
2022-09-22T14:10:26.447Z,2.7
2022-09-22T14:14:24.603Z,2.5
2022-09-22T14:16:27.075Z,2.6
2022-09-22T14:18:26.222Z,2.4
2022-09-22T14:20:27.513Z,2.6
2022-09-22T14:26:25.927Z,2.3
2022-09-22T14:28:25.504Z,2.2
2022-09-22T14:30:25.777Z,2.5
2022-09-22T14:34:27.220Z,2.6
2022-09-22T14:36:24.827Z,2.4
2022-09-22T14:40:26.935Z,2.9
2022-09-22T14:42:24.479Z,2.2
2022-09-22T14:44:21.968Z,2.8
2022-09-22T14:46:28.869Z,2.4
2022-09-22T14:48:26.371Z,2.7
2022-09-22T14:50:27.235Z,2.6
2022-09-22T14:52:25.710Z,3.2
2022-09-22T14:54:29.640Z,3
2022-09-22T14:56:27.977Z,2.5
2022-09-22T14:58:25.083Z,2.3
2022-09-22T15:00:28.333Z,2.4
2022-09-22T15:02:23.834Z,2.5
2022-09-22T15:04:24.810Z,2.7
2022-09-22T15:06:27.068Z,2.4
2022-09-22T15:08:23.859Z,2.7
2022-09-22T15:10:26.904Z,2.6
2022-09-22T15:12:24.147Z,2.7
2022-09-22T15:14:24.674Z,2.8
2022-09-22T15:16:29.540Z,3
2022-09-22T15:18:30.385Z,3.2
2022-09-22T15:22:26.468Z,2.7
2022-09-22T15:24:25.731Z,2.9
2022-09-22T15:26:29.233Z,3.2
2022-09-22T15:28:24.397Z,2.7
2022-09-22T15:32:26.353Z,2.4
2022-09-22T15:34:27.325Z,2.7
2022-09-22T15:36:25.067Z,3
2022-09-22T15:38:24.271Z,2.6
2022-09-22T15:40:26.881Z,2.7
2022-09-22T15:42:24.527Z,2.5
2022-09-22T15:46:26.096Z,2.7
2022-09-22T15:48:26.619Z,2.9
2022-09-22T15:50:25.753Z,3.5
2022-09-22T15:52:23.166Z,4
2022-09-22T15:54:24.129Z,4.2
2022-09-22T15:56:26.550Z,3.3
2022-09-22T15:58:29.506Z,3.4
2022-09-22T16:00:24.497Z,3
2022-09-22T16:02:26.013Z,2.9
2022-09-22T16:04:24.171Z,2.5
2022-09-22T16:06:27.956Z,2.6
2022-09-22T16:08:29.430Z,2.7
2022-09-22T16:10:27.078Z,2.9
2022-09-22T16:14:27.431Z,3
2022-09-22T16:16:24.701Z,2.8
2022-09-22T16:18:26.779Z,3
2022-09-22T16:20:26.441Z,2.5
2022-09-22T16:22:25.790Z,2.8
2022-09-22T16:24:26.185Z,2.7
2022-09-22T16:26:26.183Z,2.8
2022-09-22T16:28:25.754Z,2.7
2022-09-22T16:30:26.053Z,3.2
2022-09-22T16:32:26.920Z,2.8
2022-09-22T16:34:28.110Z,2.9
2022-09-22T16:36:26.172Z,2.6
2022-09-22T16:38:25.928Z,2.9
2022-09-22T16:42:29.981Z,3.1
2022-09-22T16:44:27.155Z,3.2
2022-09-22T16:46:28.955Z,3
2022-09-22T16:48:32.990Z,3.1
2022-09-22T16:50:29.803Z,3.5
2022-09-22T16:52:36.810Z,3
2022-09-22T16:56:39.667Z,2.6
2022-09-22T16:58:40.747Z,2.9
2022-09-22T17:00:33.227Z,2.4
2022-09-22T17:02:34.098Z,2.9
2022-09-22T17:04:34.327Z,2.5
2022-09-22T17:06:31.981Z,2.3
2022-09-22T17:08:30.637Z,2.7
2022-09-22T17:10:24.644Z,2.8
2022-09-22T17:12:27.317Z,2.6
2022-09-22T17:14:25.062Z,3.3
2022-09-22T17:16:28.945Z,2.8
2022-09-22T17:18:26.249Z,2.7
2022-09-22T17:22:20.827Z,3
2022-09-22T17:24:23.029Z,2.5
2022-09-22T17:26:26.351Z,2.6
2022-09-22T17:28:28.725Z,3.2
2022-09-22T17:30:26.651Z,2.8
2022-09-22T17:32:28.497Z,2.6
2022-09-22T17:34:26.444Z,2.9
2022-09-22T17:36:31.409Z,2.8
2022-09-22T17:38:30.144Z,2.2
2022-09-22T17:40:28.655Z,2.6
2022-09-22T17:42:35.604Z,2.7
2022-09-22T17:44:38.490Z,3.3
2022-09-22T17:46:30.483Z,3.1
2022-09-22T17:48:37.783Z,3.6
2022-09-22T17:50:26.890Z,3.4
2022-09-22T17:52:29.860Z,5
2022-09-22T17:54:28.885Z,6.5
2022-09-22T17:56:27.475Z,5.9
2022-09-22T17:58:26.357Z,5.3
2022-09-22T18:04:24.607Z,4.7
2022-09-22T18:06:27.078Z,4.6
2022-09-22T18:08:28.800Z,4
2022-09-22T18:14:28.893Z,3.7
2022-09-22T18:16:29.536Z,4.3
2022-09-22T18:18:27.006Z,3.9
2022-09-22T18:20:26.034Z,4
2022-09-22T18:22:29.838Z,4.5
2022-09-22T18:24:25.593Z,4.3
2022-09-22T18:26:25.404Z,3.9
2022-09-22T18:28:26.336Z,4.3
2022-09-22T18:30:27.811Z,3.8
2022-09-22T18:34:21.821Z,4.2
2022-09-22T18:36:24.452Z,3.7
2022-09-22T18:38:27.077Z,4.5
2022-09-22T18:40:26.191Z,3.7
2022-09-22T18:44:26.588Z,4.2
2022-09-22T18:48:26.770Z,3.5
2022-09-22T18:50:28.364Z,3.7
2022-09-22T18:52:25.267Z,3.4
2022-09-22T18:54:25.908Z,3.2
2022-09-22T18:56:28.685Z,3.1
2022-09-22T18:58:24.164Z,2.8
2022-09-22T19:00:26.521Z,3
2022-09-22T19:02:25.318Z,2.9
2022-09-22T19:08:22.801Z,3.5
2022-09-22T19:10:27.481Z,4.1
2022-09-22T19:12:30.560Z,5
2022-09-22T19:14:20.850Z,6.5
2022-09-22T19:16:28.009Z,7.6
2022-09-22T19:18:27.358Z,8.8
2022-09-22T19:20:29.855Z,10.2
2022-09-22T19:22:26.015Z,8.2
2022-09-22T19:24:23.264Z,5.9
2022-09-22T19:26:29.212Z,5.2
2022-09-22T19:28:27.952Z,4.3
2022-09-22T19:32:24.904Z,4.5
2022-09-22T19:34:22.467Z,3.5
2022-09-22T19:36:24.875Z,3.4
2022-09-22T19:38:28.190Z,3.3
2022-09-22T19:40:27.262Z,3.1
2022-09-22T19:42:22.495Z,3.2
2022-09-22T19:44:23.122Z,3.7
2022-09-22T19:46:27.809Z,4.4
2022-09-22T19:50:28.218Z,4.7
2022-09-22T19:52:26.105Z,4
2022-09-22T19:54:26.786Z,3.6
2022-09-22T19:56:24.955Z,3.7
2022-09-22T19:58:24.601Z,3.6
2022-09-22T20:00:23.604Z,4.1
2022-09-22T20:02:25.974Z,3
2022-09-22T20:04:22.788Z,3.5
2022-09-22T20:06:25.759Z,3.1
2022-09-22T20:08:23.087Z,3.3
2022-09-22T20:10:23.111Z,3.4
2022-09-22T20:12:25.109Z,3.2
2022-09-22T20:14:24.862Z,3.9
2022-09-22T20:16:22.792Z,2.9
2022-09-22T20:18:25.326Z,3.5
2022-09-22T20:20:25.642Z,3.2
2022-09-22T20:22:22.657Z,3.3
2022-09-22T20:24:24.684Z,3.8
2022-09-22T20:26:26.886Z,3.2
2022-09-22T20:28:23.956Z,3.5
2022-09-22T20:30:24.076Z,3
2022-09-22T20:32:22.355Z,3.5
2022-09-22T20:34:21.402Z,3.8
2022-09-22T20:36:25.400Z,3.7
2022-09-22T20:38:26.375Z,3.5
2022-09-22T20:40:22.747Z,3.2
2022-09-22T20:42:26.122Z,3.1
2022-09-22T20:44:21.534Z,3.3
2022-09-22T20:46:29.218Z,3.5
2022-09-22T20:48:25.646Z,3.6
2022-09-22T20:52:29.079Z,3.2
2022-09-22T20:54:21.988Z,3.5
2022-09-22T20:56:26.409Z,3.4
2022-09-22T20:58:27.582Z,3.3
2022-09-22T21:00:24.429Z,3.8
2022-09-22T21:04:25.685Z,3.2
2022-09-22T21:06:25.016Z,4
2022-09-22T21:08:28.063Z,3.7
2022-09-22T21:12:31.077Z,3.5
2022-09-22T21:14:21.559Z,3.7
2022-09-22T21:16:25.547Z,3.3
2022-09-22T21:18:24.987Z,3.5
2022-09-22T21:20:24.113Z,3.6
2022-09-22T21:22:28.724Z,4
2022-09-22T21:24:23.086Z,3.2
2022-09-22T21:26:23.065Z,3.7
2022-09-22T21:28:27.042Z,3
2022-09-22T21:30:23.065Z,3.4
2022-09-22T21:32:26.543Z,3.6
2022-09-22T21:34:25.120Z,3.7
2022-09-22T21:36:27.389Z,3.5
2022-09-22T21:38:27.952Z,3.7
2022-09-22T21:40:24.378Z,3.1
2022-09-22T21:42:24.979Z,3.5
2022-09-22T21:44:23.329Z,3.2
2022-09-22T21:46:27.816Z,3.3
2022-09-22T21:48:23.238Z,4.4
2022-09-22T21:50:25.701Z,3.6
2022-09-22T21:52:28.966Z,3.8
2022-09-22T21:54:21.121Z,3.4
2022-09-22T21:56:25.784Z,3.6
2022-09-22T21:58:29.382Z,4.1
2022-09-22T22:00:50.739Z,3.8
2022-09-22T22:02:28.030Z,3.5
2022-09-22T22:04:22.767Z,4.1
2022-09-22T22:06:27.087Z,4.3
2022-09-22T22:08:26.248Z,3.5
2022-09-22T22:10:26.724Z,3.8
2022-09-22T22:12:26.010Z,3.5
2022-09-22T22:14:25.440Z,3.6
2022-09-22T22:16:27.962Z,3.8
2022-09-22T22:18:26.828Z,4.4
2022-09-22T22:20:25.190Z,3.6
2022-09-22T22:22:25.756Z,4.4
2022-09-22T22:24:24.779Z,3.8
2022-09-22T22:26:24.653Z,4
2022-09-22T22:28:25.273Z,3.8
2022-09-22T22:30:23.386Z,4.2
2022-09-22T22:32:25.477Z,3.7
2022-09-22T22:34:22.133Z,3.6
2022-09-22T22:36:25.863Z,3.9
2022-09-22T22:38:24.069Z,3.8
2022-09-22T22:40:25.049Z,3.7
2022-09-22T22:42:23.154Z,3.9
2022-09-22T22:44:24.980Z,3.3
2022-09-22T22:46:25.314Z,3.6
2022-09-22T22:48:25.588Z,3.5
2022-09-22T22:50:26.618Z,4.1
2022-09-22T22:52:27.817Z,3.7
2022-09-22T22:54:25.808Z,4.1
2022-09-22T22:56:27.169Z,3.6
2022-09-22T22:58:22.439Z,3.2
2022-09-22T23:00:26.264Z,3.5
2022-09-22T23:02:25.067Z,3.4
2022-09-22T23:04:21.222Z,3.3
2022-09-22T23:06:25.481Z,3.5
2022-09-22T23:08:25.956Z,3.8
2022-09-22T23:10:22.539Z,3.2
2022-09-22T23:12:25.011Z,4.1
2022-09-22T23:14:21.256Z,3.7
2022-09-22T23:16:26.389Z,3.6
2022-09-22T23:20:25.309Z,3.8
2022-09-22T23:22:23.232Z,3.5
2022-09-22T23:26:22.517Z,3.8
2022-09-22T23:28:29.257Z,4
2022-09-22T23:30:22.891Z,4.4
2022-09-22T23:32:23.985Z,4.1
2022-09-22T23:36:22.509Z,3.8
2022-09-22T23:38:25.871Z,3.2
2022-09-22T23:40:25.884Z,3.3
2022-09-22T23:42:24.621Z,3.9
2022-09-22T23:46:26.449Z,4
2022-09-22T23:48:23.515Z,3.8
2022-09-22T23:50:24.714Z,3.5
2022-09-22T23:52:28.408Z,3.8
2022-09-22T23:54:22.617Z,3.4
2022-09-22T23:56:22.258Z,3.5
2022-09-22T23:58:25.097Z,3.3
